Time;durP1;ratioP1;P1;durP2;ratioP2;P2;SDS_P1;SDS_P2;PMS_P1;PMS_P2;Temp;Humidity;BMP_temperature;BMP_pressure;BME280_temperature;BME280_humidity;BME280_pressure;Samples;Min_cycle;Max_cycle;Signal;HPM_P1;HPM_P2
2022/12/05 00:00:10;;;;;;;;;;;;;;;2.29;100.00;101905.06;5096579;28;19930;-76
2022/12/05 00:02:35;;;;;;;;;;;;;;;2.32;100.00;101909.38;5094591;28;19916;-76
2022/12/05 00:05:01;;;;;;;;;;;;;;;2.32;100.00;101909.38;5097684;28;19931;-76
2022/12/05 00:07:28;;;;;;;;;;;;;;;2.33;100.00;101912.84;5095603;28;20321;-76
2022/12/05 00:09:53;;;;;;;;;;;;;;;2.31;100.00;101907.66;5092896;28;19920;-76
2022/12/05 00:12:19;;;;;;;;;;;;;;;2.32;100.00;101903.38;5096941;28;19928;-76
2022/12/05 00:14:44;;;;;;;;;;;;;;;2.34;100.00;101909.41;5098411;28;20000;-76
2022/12/05 00:17:09;;;;;;;;;;;;;;;2.35;100.00;101905.94;5080079;28;19932;-76
2022/12/05 00:19:34;;;;;;;;;;;;;;;2.36;100.00;101907.69;5086808;28;20179;-76
2022/12/05 00:22:00;;;;;;;;;;;;;;;2.36;100.00;101902.53;5099951;28;20200;-76
2022/12/05 00:24:25;;;;;;;;;;;;;;;2.38;100.00;101908.59;5099919;28;19912;-76
2022/12/05 00:26:50;;;;;;;;;;;;;;;2.38;100.00;101903.41;5099655;28;19916;-76
2022/12/05 00:29:16;;;;;;;;;;;;;;;2.38;100.00;101909.44;5099718;28;19912;-76
2022/12/05 00:31:41;;;;;;;;;;;;;;;2.39;100.00;101908.59;5099490;28;20122;-76
2022/12/05 00:34:06;;;;;;;;;;;;;;;2.41;100.00;101906.03;5099925;28;19924;-76
2022/12/05 00:36:32;;;;;;;;;;;;;;;2.41;100.00;101914.66;5099315;28;20203;-76
2022/12/05 00:38:59;;;;;;;;;;;;;;;2.43;100.00;101914.69;5099204;28;20041;-76
2022/12/05 00:41:25;;;;;;;;;;;;;;;2.43;100.00;101905.19;5097514;28;19981;-76
2022/12/05 00:43:51;;;;;;;;;;;;;;;2.45;100.00;101913.81;5082038;28;19927;-76
2022/12/05 00:46:17;;;;;;;;;;;;;;;2.45;100.00;101908.66;5097987;28;19924;-76
2022/12/05 00:48:43;;;;;;;;;;;;;;;2.47;100.00;101912.16;5097422;28;19920;-76
2022/12/05 00:51:09;;;;;;;;;;;;;;;2.48;100.00;101915.59;5079414;28;19919;-76
2022/12/05 00:53:35;;;;;;;;;;;;;;;2.49;100.00;101906.97;5078927;28;19922;-76
2022/12/05 00:56:01;;;;;;;;;;;;;;;2.49;100.00;101907.84;5095857;28;19920;-76
2022/12/05 00:58:26;;;;;;;;;;;;;;;2.49;100.00;101907.84;5098944;28;19928;-76
2022/12/05 01:00:52;;;;;;;;;;;;;;;2.52;100.00;101912.19;5083895;28;20318;-76
2022/12/05 01:03:17;;;;;;;;;;;;;;;2.55;100.00;101916.50;5078873;28;19983;-76
2022/12/05 01:05:42;;;;;;;;;;;;;;;2.55;100.00;101908.75;5091559;28;19924;-76
2022/12/05 01:08:07;;;;;;;;;;;;;;;2.56;100.00;101910.50;5098613;28;19957;-76
2022/12/05 01:10:33;;;;;;;;;;;;;;;2.56;100.00;101910.50;5088206;28;20001;-76
2022/12/05 01:12:58;;;;;;;;;;;;;;;2.57;100.00;101901.88;5066475;28;19924;-76
2022/12/05 01:15:23;;;;;;;;;;;;;;;2.56;100.00;101898.41;5088202;28;19926;-76
2022/12/05 01:17:48;;;;;;;;;;;;;;;2.58;100.00;101901.88;5090962;28;19998;-76
2022/12/05 01:20:14;;;;;;;;;;;;;;;2.59;100.00;101902.78;5080286;28;19924;-76
2022/12/05 01:22:39;;;;;;;;;;;;;;;2.58;100.00;101901.03;5098282;28;19920;-76
2022/12/05 01:25:04;;;;;;;;;;;;;;;2.58;100.00;101907.06;5097262;28;19948;-76
2022/12/05 01:27:30;;;;;;;;;;;;;;;2.59;100.00;101902.78;5087064;28;19912;-76
2022/12/05 01:29:56;;;;;;;;;;;;;;;2.60;100.00;101907.06;5098513;28;20104;-76
2022/12/05 01:32:21;;;;;;;;;;;;;;;2.60;100.00;101907.06;5098720;28;19951;-76
2022/12/05 01:34:46;;;;;;;;;;;;;;;2.60;100.00;101905.38;5098969;28;20080;-76
2022/12/05 01:37:12;;;;;;;;;;;;;;;2.62;100.00;101907.94;5080353;28;19927;-76
2022/12/05 01:39:37;;;;;;;;;;;;;;;2.64;100.00;101908.84;5080252;28;19912;-76
2022/12/05 01:42:03;;;;;;;;;;;;;;;2.65;100.00;101913.16;5095762;28;19962;-76
2022/12/05 01:44:28;;;;;;;;;;;;;;;2.67;100.00;101906.28;5078136;28;19927;-76
2022/12/05 01:46:54;;;;;;;;;;;;;;;2.67;100.00;101912.34;5084799;28;19920;-76
2022/12/05 01:49:25;;;;;;;;;;;;;;;2.69;100.00;101912.31;5090697;28;20234;-76
2022/12/05 01:51:52;;;;;;;;;;;;;;;2.70;100.00;101916.66;5091916;28;19920;-76
2022/12/05 01:54:18;;;;;;;;;;;;;;;2.69;100.00;101914.91;5095981;28;19915;-76
2022/12/05 01:56:47;;;;;;;;;;;;;;;2.69;100.00;101918.38;5086183;28;19918;-76
2022/12/05 01:59:12;;;;;;;;;;;;;;;2.70;100.00;101908.91;5096899;28;20135;-76
2022/12/05 02:01:38;;;;;;;;;;;;;;;2.71;100.00;101908.06;5092656;28;19932;-76
2022/12/05 02:04:04;;;;;;;;;;;;;;;2.72;100.00;101912.38;5098012;28;19916;-76
2022/12/05 02:06:30;;;;;;;;;;;;;;;2.74;100.00;101907.22;5092874;28;20266;-76
2022/12/05 02:08:56;;;;;;;;;;;;;;;2.73;100.00;101908.94;5089692;28;19955;-76
2022/12/05 02:11:22;;;;;;;;;;;;;;;2.73;100.00;101913.22;5087867;28;19928;-76
2022/12/05 02:14:11;;;;;;;;;;;;;;;2.73;100.00;101918.41;5095913;28;19983;-76
2022/12/05 02:16:54;;;;;;;;;;;;;;;2.74;100.00;101915.81;5081083;28;20034;-76
2022/12/05 02:19:38;;;;;;;;;;;;;;;2.75;100.00;101916.69;5078863;28;19919;-76
2022/12/05 02:22:04;;;;;;;;;;;;;;;2.75;100.00;101912.41;5081750;28;20038;-76
2022/12/05 02:24:42;;;;;;;;;;;;;;;2.77;100.00;101915.00;5096955;28;19912;-76
2022/12/05 02:27:22;;;;;;;;;;;;;;;2.78;100.00;101911.53;5096408;28;19966;-76
2022/12/05 02:29:53;;;;;;;;;;;;;;;2.78;100.00;101903.78;5084199;28;20137;-76
2022/12/05 02:32:28;;;;;;;;;;;;;;;2.80;100.00;101913.31;5094578;28;19999;-76
2022/12/05 02:34:56;;;;;;;;;;;;;;;2.81;100.00;101912.44;5077175;28;20200;-76
2022/12/05 02:37:27;;;;;;;;;;;;;;;2.83;100.00;101909.88;5077892;28;19916;-76
2022/12/05 02:39:58;;;;;;;;;;;;;;;2.83;100.00;101908.16;5096928;28;19927;-76
2022/12/05 02:42:43;;;;;;;;;;;;;;;2.84;100.00;101912.47;5095592;28;20109;-76
2022/12/05 02:45:11;;;;;;;;;;;;;;;2.86;100.00;101915.09;5091141;28;20135;-76
2022/12/05 02:47:48;;;;;;;;;;;;;;;2.86;100.00;101918.53;5092796;28;20147;-76
2022/12/05 02:50:16;;;;;;;;;;;;;;;2.87;100.00;101912.50;5096693;28;20223;-76
2022/12/05 02:52:42;;;;;;;;;;;;;;;2.86;100.00;101913.34;5096000;28;19912;-76
2022/12/05 02:55:07;;;;;;;;;;;;;;;2.87;100.00;101920.28;5091333;28;19924;-76
2022/12/05 02:57:35;;;;;;;;;;;;;;;2.88;100.00;101923.72;5090025;28;19979;-76
2022/12/05 03:00:00;;;;;;;;;;;;;;;2.89;100.00;101922.84;5097104;28;19912;-76
2022/12/05 03:02:26;;;;;;;;;;;;;;;2.88;100.00;101911.66;5097226;28;20165;-76
2022/12/05 03:04:52;;;;;;;;;;;;;;;2.91;100.00;101925.44;5096767;28;19908;-76
2022/12/05 03:07:19;;;;;;;;;;;;;;;2.93;100.00;101929.81;5097141;28;19912;-76
2022/12/05 03:09:50;;;;;;;;;;;;;;;2.94;100.00;101922.91;5096782;28;19912;-76
2022/12/05 03:12:18;;;;;;;;;;;;;;;2.93;100.00;101924.63;5096994;28;19931;-76
2022/12/05 03:14:46;;;;;;;;;;;;;;;2.95;100.00;101922.91;5097115;28;19916;-76
2022/12/05 03:17:17;;;;;;;;;;;;;;;2.96;100.00;101916.88;5096786;28;19916;-76
2022/12/05 03:19:54;;;;;;;;;;;;;;;2.97;100.00;101916.03;5098454;28;19950;-76
2022/12/05 03:22:25;;;;;;;;;;;;;;;2.99;100.00;101923.81;5101113;28;19982;-76
2022/12/05 03:24:50;;;;;;;;;;;;;;;2.99;100.00;101919.50;5101102;28;20216;-76
2022/12/05 03:27:18;;;;;;;;;;;;;;;3.01;100.00;101914.34;5101118;28;19933;-76
2022/12/05 03:30:00;;;;;;;;;;;;;;;3.01;100.00;101924.69;5100952;28;19922;-76
2022/12/05 03:32:48;;;;;;;;;;;;;;;3.02;100.00;101919.53;5101183;28;19923;-76
2022/12/05 03:35:32;;;;;;;;;;;;;;;3.03;100.00;101928.16;5087382;28;19988;-76
2022/12/05 03:38:02;;;;;;;;;;;;;;;3.04;100.00;101927.31;5100991;28;19916;-76
2022/12/05 03:40:37;;;;;;;;;;;;;;;3.03;100.00;101926.41;5101162;28;19915;-76
2022/12/05 03:43:25;;;;;;;;;;;;;;;3.03;100.00;101921.25;5100864;28;20000;-76
2022/12/05 03:45:56;;;;;;;;;;;;;;;3.05;100.00;101935.06;5100027;28;19915;-76
2022/12/05 03:48:33;;;;;;;;;;;;;;;3.05;100.00;101929.88;5100660;28;19920;-76
2022/12/05 03:51:00;;;;;;;;;;;;;;;3.06;100.00;101938.53;5100812;28;19916;-76
2022/12/05 03:53:27;;;;;;;;;;;;;;;3.06;100.00;101938.53;5100623;28;19949;-76
2022/12/05 03:56:13;;;;;;;;;;;;;;;3.06;100.00;101936.81;5100473;28;20180;-76
2022/12/05 03:58:55;;;;;;;;;;;;;;;3.07;100.00;101940.25;5094420;28;19988;-75
2022/12/05 04:01:22;;;;;;;;;;;;;;;3.06;100.00;101928.19;5080125;28;20337;-75
2022/12/05 04:03:53;;;;;;;;;;;;;;;3.07;100.00;101938.56;5084478;28;19923;-75
2022/12/05 04:06:19;;;;;;;;;;;;;;;3.07;100.00;101943.72;5073286;28;19958;-75
2022/12/05 04:08:49;;;;;;;;;;;;;;;3.08;100.00;101948.03;5083836;28;19916;-75
2022/12/05 04:11:17;;;;;;;;;;;;;;;3.08;100.00;101945.44;5095743;28;19982;-75
2022/12/05 04:13:45;;;;;;;;;;;;;;;3.10;100.00;101944.59;5080408;28;19991;-75
2022/12/05 04:19:13;;;;;;;;;;;;;;;3.12;100.00;101945.47;5097360;28;19939;-75
2022/12/05 04:21:42;;;;;;;;;;;;;;;3.12;100.00;101948.94;5092261;28;19924;-75
2022/12/05 04:27:20;;;;;;;;;;;;;;;3.17;100.00;101951.56;5076237;28;19957;-75
2022/12/05 04:30:05;;;;;;;;;;;;;;;3.18;100.00;101948.09;5097014;28;20324;-75
2022/12/05 04:32:49;;;;;;;;;;;;;;;3.18;100.00;101948.97;5098623;28;19912;-75
2022/12/05 04:35:18;;;;;;;;;;;;;;;3.21;100.00;101951.59;5091323;28;20284;-75
2022/12/05 04:37:46;;;;;;;;;;;;;;;3.22;100.00;101949.84;5095975;28;19998;-75
2022/12/05 04:40:15;;;;;;;;;;;;;;;3.22;100.00;101948.16;5086626;28;19920;-75
2022/12/05 04:42:42;;;;;;;;;;;;;;;3.24;100.00;101943.00;5098227;28;19997;-75
2022/12/05 04:45:09;;;;;;;;;;;;;;;3.24;100.00;101951.63;5095443;28;19931;-75
2022/12/05 04:47:38;;;;;;;;;;;;;;;3.25;100.00;101942.97;5099079;28;19931;-75
2022/12/05 04:50:05;;;;;;;;;;;;;;;3.26;100.00;101949.03;5088540;28;20247;-75
2022/12/05 04:52:31;;;;;;;;;;;;;;;3.26;100.00;101947.31;5091797;28;19920;-75
2022/12/05 04:55:16;;;;;;;;;;;;;;;3.29;100.00;101943.00;5080466;28;19925;-75
2022/12/05 04:57:51;;;;;;;;;;;;;;;3.31;100.00;101946.47;5097009;28;19991;-75
2022/12/05 05:00:16;;;;;;;;;;;;;;;3.32;100.00;101945.63;5088360;28;19954;-75
2022/12/05 05:02:44;;;;;;;;;;;;;;;3.33;100.00;101947.34;5091403;28;19917;-75
2022/12/05 05:05:10;;;;;;;;;;;;;;;3.33;100.00;101950.81;5079376;28;20007;-75
2022/12/05 05:07:43;;;;;;;;;;;;;;;3.34;100.00;101943.91;5098781;28;19954;-75
2022/12/05 05:10:11;;;;;;;;;;;;;;;3.34;100.00;101942.19;5087387;28;19924;-75
2022/12/05 05:12:36;;;;;;;;;;;;;;;3.36;100.00;101942.19;5097351;28;20211;-75
2022/12/05 05:15:02;;;;;;;;;;;;;;;3.35;100.00;101951.69;5099227;28;19923;-75
2022/12/05 05:17:27;;;;;;;;;;;;;;;3.37;100.00;101947.41;5082625;28;19924;-75
2022/12/05 05:20:22;;;;;;;;;;;;;;;3.37;100.00;101942.22;5078929;28;20140;-75
2022/12/05 05:22:37;;;;;;;;;;;;;;;3.38;100.00;101943.94;5079160;28;20270;-75
2022/12/05 05:25:03;;;;;;;;;;;;;;;3.41;100.00;101948.28;5098750;28;20226;-75
2022/12/05 05:27:28;;;;;;;;;;;;;;;3.44;100.00;101948.31;5086760;28;19970;-75
2022/12/05 05:29:53;;;;;;;;;;;;;;;3.46;100.00;101954.38;5086186;28;19915;-75
2022/12/05 05:32:19;;;;;;;;;;;;;;;3.48;100.00;101959.56;5087562;28;20009;-75
2022/12/05 05:34:44;;;;;;;;;;;;;;;3.49;100.00;101963.88;5078406;28;19924;-75
2022/12/05 05:37:09;;;;;;;;;;;;;;;3.48;100.00;101960.41;5088017;28;20231;-75
2022/12/05 05:39:34;;;;;;;;;;;;;;;3.50;100.00;101965.63;5098441;28;19924;-75
2022/12/05 05:41:59;;;;;;;;;;;;;;;3.49;100.00;101962.13;5091581;28;19921;-75
2022/12/05 05:44:25;;;;;;;;;;;;;;;3.50;100.00;101969.06;5083391;28;20154;-75
2022/12/05 05:46:50;;;;;;;;;;;;;;;3.51;100.00;101960.44;5094609;28;19924;-75
2022/12/05 05:49:15;;;;;;;;;;;;;;;3.53;100.00;101957.84;5078181;28;19935;-75
2022/12/05 05:51:40;;;;;;;;;;;;;;;3.55;100.00;101969.09;5061972;28;19924;-75
2022/12/05 05:54:06;;;;;;;;;;;;;;;3.54;100.00;101965.63;5094452;28;20204;-74
2022/12/05 05:56:31;;;;;;;;;;;;;;;3.55;100.00;101971.69;5077942;28;20287;-75
2022/12/05 05:58:58;;;;;;;;;;;;;;;3.55;100.00;101967.38;5096250;28;19974;-75
2022/12/05 06:01:23;;;;;;;;;;;;;;;3.56;100.00;101968.22;5079455;28;19924;-75
2022/12/05 06:03:51;;;;;;;;;;;;;;;3.57;100.00;101968.25;5081920;28;19925;-75
2022/12/05 06:06:17;;;;;;;;;;;;;;;3.58;100.00;101971.69;5079184;28;19913;-75
2022/12/05 06:08:43;;;;;;;;;;;;;;;3.58;100.00;101969.09;5091904;28;19960;-75
2022/12/05 06:11:12;;;;;;;;;;;;;;;3.59;100.00;101970.84;5098007;28;19919;-75
2022/12/05 06:13:37;;;;;;;;;;;;;;;3.59;100.00;101966.53;5096649;28;19998;-75
2022/12/05 06:16:07;;;;;;;;;;;;;;;3.60;100.00;101967.38;5097726;28;19924;-75
2022/12/05 06:18:32;;;;;;;;;;;;;;;3.60;100.00;101973.44;5086186;28;20478;-75
2022/12/05 06:20:58;;;;;;;;;;;;;;;3.61;100.00;101966.53;5078288;28;19976;-75
2022/12/05 06:23:24;;;;;;;;;;;;;;;3.60;100.00;101963.09;5080733;28;19920;-75
2022/12/05 06:25:50;;;;;;;;;;;;;;;3.63;100.00;101967.41;5077600;28;19951;-75
2022/12/05 06:28:16;;;;;;;;;;;;;;;3.63;100.00;101970.00;5086365;28;19925;-75
2022/12/05 06:30:41;;;;;;;;;;;;;;;3.63;100.00;101970.84;5077111;28;20263;-75
2022/12/05 06:33:07;;;;;;;;;;;;;;;3.64;100.00;101971.75;5080528;28;19947;-75
2022/12/05 06:35:32;;;;;;;;;;;;;;;3.67;100.00;101976.06;5096768;28;19955;-75
2022/12/05 06:37:57;;;;;;;;;;;;;;;3.68;100.00;101976.09;5096247;28;20242;-75
2022/12/05 06:40:22;;;;;;;;;;;;;;;3.67;100.00;101973.47;5085157;28;19916;-75
2022/12/05 06:42:48;;;;;;;;;;;;;;;3.70;100.00;101973.50;5079308;28;19923;-75
2022/12/05 06:45:13;;;;;;;;;;;;;;;3.71;100.00;101978.72;5092465;28;20231;-75
2022/12/05 06:47:38;;;;;;;;;;;;;;;3.72;100.00;101975.25;5083561;28;19924;-75
2022/12/05 06:50:04;;;;;;;;;;;;;;;3.74;100.00;101976.09;5093813;28;20303;-75
2022/12/05 06:52:29;;;;;;;;;;;;;;;3.75;100.00;101977.00;5084765;28;19916;-75
2022/12/05 06:54:54;;;;;;;;;;;;;;;3.77;100.00;101980.47;5091736;28;19916;-75
2022/12/05 06:57:20;;;;;;;;;;;;;;;3.78;100.00;101987.34;5094994;28;19930;-75
2022/12/05 06:59:45;;;;;;;;;;;;;;;3.79;100.00;101987.38;5081518;28;19976;-75
2022/12/05 07:02:11;;;;;;;;;;;;;;;3.81;100.00;101992.56;5094632;28;19924;-75
2022/12/05 07:04:36;;;;;;;;;;;;;;;3.82;100.00;101991.69;5088128;28;20215;-75
2022/12/05 07:07:02;;;;;;;;;;;;;;;3.82;100.00;101999.47;5097071;28;19973;-75
2022/12/05 07:09:50;;;;;;;;;;;;;;;3.83;100.00;101990.84;5091034;28;20271;-75
2022/12/05 07:12:16;;;;;;;;;;;;;;;3.84;100.00;101997.78;5087276;28;19927;-75
2022/12/05 07:14:41;;;;;;;;;;;;;;;3.85;100.00;101999.50;5088602;28;19995;-75
2022/12/05 07:17:07;;;;;;;;;;;;;;;3.87;100.00;101997.78;5093896;28;19924;-75
2022/12/05 07:19:32;;;;;;;;;;;;;;;3.89;100.00;102002.97;5096365;28;19920;-75
2022/12/05 07:21:57;;;;;;;;;;;;;;;3.89;100.00;101992.59;5096988;28;20037;-75
2022/12/05 07:24:23;;;;;;;;;;;;;;;3.90;100.00;102002.13;5092118;28;19924;-75
2022/12/05 07:26:48;;;;;;;;;;;;;;;3.92;100.00;102009.03;5089505;28;19925;-75
2022/12/05 07:29:13;;;;;;;;;;;;;;;3.93;100.00;102009.91;5088390;28;19978;-75
2022/12/05 07:31:38;;;;;;;;;;;;;;;3.94;100.00;102004.72;5090891;28;19924;-75
2022/12/05 07:34:04;;;;;;;;;;;;;;;3.96;100.00;102009.94;5093869;28;20216;-73
2022/12/05 07:36:29;;;;;;;;;;;;;;;3.96;100.00;102002.16;5080341;28;19948;-75
2022/12/05 07:38:55;;;;;;;;;;;;;;;3.97;100.00;102007.34;5086651;28;19931;-75
2022/12/05 07:41:22;;;;;;;;;;;;;;;3.97;100.00;101999.56;5093445;28;19955;-75
2022/12/05 07:43:49;;;;;;;;;;;;;;;3.99;100.00;102009.94;5092832;28;20138;-75
2022/12/05 07:46:15;;;;;;;;;;;;;;;3.99;100.00;102016.00;5095684;28;20265;-75
2022/12/05 07:48:40;;;;;;;;;;;;;;;4.00;100.00;102007.38;5093709;28;19924;-75
2022/12/05 07:51:06;;;;;;;;;;;;;;;4.03;100.00;102022.06;5095609;28;19948;-75
2022/12/05 07:53:32;;;;;;;;;;;;;;;4.02;100.00;102021.22;5093754;28;19965;-75
2022/12/05 07:55:58;;;;;;;;;;;;;;;4.04;100.00;102023.81;5092645;28;19928;-75
2022/12/05 07:58:23;;;;;;;;;;;;;;;4.06;100.00;102022.09;5094801;28;19971;-75
2022/12/05 08:00:48;;;;;;;;;;;;;;;4.06;100.00;102027.28;5089265;28;20165;-75
2022/12/05 08:03:13;;;;;;;;;;;;;;;4.08;100.00;102020.38;5081105;28;20257;-75
2022/12/05 08:05:39;;;;;;;;;;;;;;;4.09;100.00;102018.63;5078374;28;20432;-75
2022/12/05 08:08:04;;;;;;;;;;;;;;;4.09;100.00;102010.84;5065316;28;19928;-75
2022/12/05 08:10:30;;;;;;;;;;;;;;;4.10;100.00;102015.19;5081706;28;19932;-75
2022/12/05 08:12:55;;;;;;;;;;;;;;;4.11;100.00;102022.09;5078267;28;19942;-73
2022/12/05 08:15:20;;;;;;;;;;;;;;;4.12;100.00;102018.66;5072330;28;20004;-75
2022/12/05 08:17:45;;;;;;;;;;;;;;;4.12;100.00;102022.09;5067953;28;19928;-75
2022/12/05 08:20:11;;;;;;;;;;;;;;;4.13;100.00;102028.16;5075014;28;20015;-75
2022/12/05 08:22:36;;;;;;;;;;;;;;;4.14;100.00;102025.56;5057982;28;20134;-75
2022/12/05 08:25:02;;;;;;;;;;;;;;;4.15;100.00;102027.31;5076687;28;19912;-75
2022/12/05 08:27:27;;;;;;;;;;;;;;;4.17;100.00;102032.53;5074870;28;19927;-75
2022/12/05 08:29:53;;;;;;;;;;;;;;;4.17;100.00;102019.56;5077287;28;19920;-75
2022/12/05 08:32:18;;;;;;;;;;;;;;;4.17;100.00;102033.38;5068865;28;19925;-75
2022/12/05 08:34:44;;;;;;;;;;;;;;;4.17;100.00;102035.97;5066342;28;20247;-75
2022/12/05 08:37:09;;;;;;;;;;;;;;;4.19;100.00;102041.16;5071307;28;19969;-75
2022/12/05 08:39:35;;;;;;;;;;;;;;;4.19;100.00;102042.03;5056324;28;20030;-75
2022/12/05 08:42:01;;;;;;;;;;;;;;;4.20;100.00;102046.38;5073213;28;20379;-75
2022/12/05 08:44:26;;;;;;;;;;;;;;;4.20;100.00;102038.59;5076140;28;19959;-75
2022/12/05 08:46:51;;;;;;;;;;;;;;;4.23;100.00;102045.50;5077517;28;19942;-75
2022/12/05 08:49:17;;;;;;;;;;;;;;;4.23;100.00;102054.13;5071634;28;19925;-75
2022/12/05 08:51:42;;;;;;;;;;;;;;;4.25;100.00;102050.69;5071529;28;19920;-75
2022/12/05 08:54:08;;;;;;;;;;;;;;;4.24;100.00;102055.03;5073738;28;20136;-75
2022/12/05 08:56:33;;;;;;;;;;;;;;;4.23;100.00;102061.91;5047802;28;19991;-75
2022/12/05 08:58:59;;;;;;;;;;;;;;;4.25;100.00;102064.53;5066436;28;19928;-75
2022/12/05 09:01:29;;;;;;;;;;;;;;;4.25;100.00;102066.25;5072349;28;19951;-75
2022/12/05 09:03:54;;;;;;;;;;;;;;;4.26;100.00;102063.69;5074985;28;19930;-75
2022/12/05 09:06:21;;;;;;;;;;;;;;;4.25;100.00;102061.94;5068453;28;19925;-75
2022/12/05 09:08:46;;;;;;;;;;;;;;;4.28;100.00;102066.28;5070615;28;20165;-75
2022/12/05 09:11:12;;;;;;;;;;;;;;;4.28;100.00;102069.75;5072960;28;19924;-75
2022/12/05 09:13:38;;;;;;;;;;;;;;;4.28;100.00;102061.97;5086998;28;20192;-75
2022/12/05 09:16:07;;;;;;;;;;;;;;;4.30;100.00;102068.00;5080663;28;19944;-75
2022/12/05 09:18:33;;;;;;;;;;;;;;;4.31;100.00;102068.88;5079940;28;19920;-75
2022/12/05 09:21:03;;;;;;;;;;;;;;;4.32;100.00;102074.06;5085724;28;19924;-75
2022/12/05 09:23:29;;;;;;;;;;;;;;;4.33;100.00;102070.63;5082602;28;19924;-75
2022/12/05 09:26:01;;;;;;;;;;;;;;;4.34;100.00;102069.75;5078215;28;20108;-75
2022/12/05 09:28:26;;;;;;;;;;;;;;;4.36;100.00;102074.94;5079195;28;19924;-75
2022/12/05 09:30:58;;;;;;;;;;;;;;;4.37;100.00;102071.50;5078061;28;20199;-75
2022/12/05 09:33:24;;;;;;;;;;;;;;;4.37;100.00;102080.16;5074510;28;19920;-75
2022/12/05 09:35:49;;;;;;;;;;;;;;;4.39;100.00;102087.94;5073979;28;19935;-75
2022/12/05 09:38:14;;;;;;;;;;;;;;;4.40;100.00;102085.38;5079587;28;19935;-75
2022/12/05 09:40:41;;;;;;;;;;;;;;;4.41;100.00;102086.22;5077352;28;19925;-75
2022/12/05 09:43:07;;;;;;;;;;;;;;;4.42;100.00;102082.75;5073876;28;20278;-75
2022/12/05 09:45:38;;;;;;;;;;;;;;;4.43;100.00;102090.53;5081811;28;19986;-75
2022/12/05 09:48:14;;;;;;;;;;;;;;;4.43;100.00;102087.94;5080378;28;19995;-75
2022/12/05 09:50:48;;;;;;;;;;;;;;;4.45;100.00;102090.56;5083719;28;19920;-75
2022/12/05 09:53:16;;;;;;;;;;;;;;;4.47;100.00;102100.94;5083413;28;19970;-75
2022/12/05 09:55:47;;;;;;;;;;;;;;;4.46;100.00;102097.50;5077983;28;19927;-75
2022/12/05 09:58:19;;;;;;;;;;;;;;;4.47;100.00;102094.03;5086412;28;19989;-75
2022/12/05 10:00:44;;;;;;;;;;;;;;;4.49;100.00;102089.72;5082375;28;19926;-75
2022/12/05 10:03:25;;;;;;;;;;;;;;;4.50;100.00;102094.03;5067864;28;19956;-75
2022/12/05 10:05:53;;;;;;;;;;;;;;;4.51;100.00;102088.00;5076059;28;19978;-75
2022/12/05 10:08:19;;;;;;;;;;;;;;;4.51;100.00;102093.19;5082365;28;19916;-75
2022/12/05 10:10:52;;;;;;;;;;;;;;;4.52;100.00;102099.25;5084415;28;20020;-75
2022/12/05 10:13:20;;;;;;;;;;;;;;;4.53;100.00;102095.78;5078547;28;19921;-75
2022/12/05 10:15:59;;;;;;;;;;;;;;;4.53;100.00;102099.25;5079809;28;19920;-75
2022/12/05 10:18:24;;;;;;;;;;;;;;;4.55;100.00;102094.09;5080650;28;20282;-75
2022/12/05 10:20:52;;;;;;;;;;;;;;;4.55;100.00;102099.28;5081812;28;19920;-75
2022/12/05 10:23:21;;;;;;;;;;;;;;;4.55;100.00;102097.53;5077360;28;19962;-75
2022/12/05 10:25:50;;;;;;;;;;;;;;;4.56;100.00;102094.06;5083191;28;19920;-75
2022/12/05 10:28:26;;;;;;;;;;;;;;;4.58;100.00;102096.66;5073833;28;20265;-75
2022/12/05 10:30:54;;;;;;;;;;;;;;;4.59;100.00;102096.69;5065850;28;20112;-75
2022/12/05 10:33:21;;;;;;;;;;;;;;;4.61;100.00;102096.69;5067325;28;19916;-75
2022/12/05 10:35:52;;;;;;;;;;;;;;;4.61;100.00;102096.69;5080816;28;20227;-75
2022/12/05 10:38:26;;;;;;;;;;;;;;;4.62;100.00;102095.84;5077315;28;20255;-75
2022/12/05 10:40:53;;;;;;;;;;;;;;;4.63;100.00;102097.56;5079463;28;19941;-75
2022/12/05 10:43:29;;;;;;;;;;;;;;;4.64;100.00;102093.22;5085263;28;19962;-75
2022/12/05 10:45:55;;;;;;;;;;;;;;;4.64;100.00;102094.13;5084724;28;19916;-75
2022/12/05 10:48:21;;;;;;;;;;;;;;;4.65;100.00;102098.44;5086158;28;19923;-75
2022/12/05 10:50:48;;;;;;;;;;;;;;;4.66;100.00;102097.59;5084620;28;20314;-75
2022/12/05 10:53:15;;;;;;;;;;;;;;;4.66;100.00;102092.41;5083800;28;19917;-75
2022/12/05 10:55:46;;;;;;;;;;;;;;;4.68;100.00;102084.63;5080841;28;19917;-75
2022/12/05 10:58:24;;;;;;;;;;;;;;;4.68;100.00;102088.06;5056115;28;19917;-75
2022/12/05 11:00:55;;;;;;;;;;;;;;;4.70;100.00;102085.50;5059178;28;20229;-75
2022/12/05 11:03:32;;;;;;;;;;;;;;;4.70;100.00;102086.34;5066687;28;19924;-75
2022/12/05 11:06:13;;;;;;;;;;;;;;;4.72;100.00;102091.53;5067780;28;19917;-75
2022/12/05 11:08:38;;;;;;;;;;;;;;;4.71;100.00;102089.78;5064964;28;19984;-75
2022/12/05 11:11:16;;;;;;;;;;;;;;;4.72;100.00;102081.16;5074036;28;19928;-75
2022/12/05 11:13:56;;;;;;;;;;;;;;;4.71;100.00;102080.31;5087624;28;19927;-75
2022/12/05 11:16:26;;;;;;;;;;;;;;;4.73;100.00;102080.28;5079932;28;19921;-75
2022/12/05 11:18:52;;;;;;;;;;;;;;;4.74;100.00;102082.03;5078549;28;19979;-75
2022/12/05 11:21:18;;;;;;;;;;;;;;;4.74;100.00;102079.44;5091200;28;19931;-75
2022/12/05 11:23:44;;;;;;;;;;;;;;;4.74;100.00;102085.47;5081363;28;19939;-75
2022/12/05 11:26:33;;;;;;;;;;;;;;;4.75;100.00;102086.38;5094585;28;19916;-75
2022/12/05 11:28:58;;;;;;;;;;;;;;;4.75;100.00;102088.97;5087176;28;20310;-75
2022/12/05 11:31:28;;;;;;;;;;;;;;;4.74;100.00;102085.47;5094729;28;19912;-75
2022/12/05 11:34:01;;;;;;;;;;;;;;;4.75;100.00;102088.97;5090909;28;20227;-76
2022/12/05 11:36:34;;;;;;;;;;;;;;;4.75;100.00;102089.84;5095326;28;19924;-75
2022/12/05 11:38:59;;;;;;;;;;;;;;;4.76;100.00;102088.94;5093005;28;19990;-75
2022/12/05 11:41:34;;;;;;;;;;;;;;;4.78;100.00;102087.25;5096375;28;19973;-75
2022/12/05 11:43:59;;;;;;;;;;;;;;;4.79;100.00;102083.78;5098774;28;19957;-75
2022/12/05 11:46:24;;;;;;;;;;;;;;;4.81;100.00;102078.59;5087436;28;19912;-75
2022/12/05 11:48:58;;;;;;;;;;;;;;;4.82;100.00;102075.16;5093204;28;20233;-75
2022/12/05 11:51:38;;;;;;;;;;;;;;;4.83;100.00;102071.69;5094114;28;19919;-75
2022/12/05 11:54:29;;;;;;;;;;;;;;;4.83;100.00;102074.28;5099113;28;19916;-75
2022/12/05 11:57:18;;;;;;;;;;;;;;;4.85;100.00;102079.47;5063405;28;19920;-75
2022/12/05 12:00:07;;;;;;;;;;;;;;;4.84;100.00;102081.22;5060419;28;19920;-75
2022/12/05 12:02:51;;;;;;;;;;;;;;;4.85;100.00;102079.47;5051347;28;20252;-75
2022/12/05 12:05:34;;;;;;;;;;;;;;;4.86;100.00;102083.78;5078140;28;19920;-75
2022/12/05 12:08:18;;;;;;;;;;;;;;;4.86;100.00;102081.19;5099736;28;19939;-75
2022/12/05 12:10:43;;;;;;;;;;;;;;;4.87;100.00;102090.72;5090773;28;20230;-75
2022/12/05 12:13:20;;;;;;;;;;;;;;;4.87;100.00;102085.53;5096966;28;19951;-75
2022/12/05 12:15:56;;;;;;;;;;;;;;;4.89;100.00;102092.44;5093758;28;20170;-75
2022/12/05 12:18:41;;;;;;;;;;;;;;;4.88;100.00;102088.13;5092311;28;19916;-75
2022/12/05 12:21:19;;;;;;;;;;;;;;;4.90;100.00;102093.34;5091062;28;19920;-75
2022/12/05 12:23:44;;;;;;;;;;;;;;;4.90;100.00;102085.56;5092370;28;20390;-75
2022/12/05 12:26:29;;;;;;;;;;;;;;;4.91;100.00;102084.66;5094089;28;19947;-73
2022/12/05 12:29:06;;;;;;;;;;;;;;;4.90;100.00;102091.59;5096224;28;19912;-75
2022/12/05 12:31:44;;;;;;;;;;;;;;;4.92;100.00;102083.81;5095415;28;19931;-75
2022/12/05 12:34:32;;;;;;;;;;;;;;;4.92;100.00;102089.00;5092319;28;20149;-75
2022/12/05 12:37:04;;;;;;;;;;;;;;;4.92;100.00;102083.81;5080563;28;20257;-76
2022/12/05 12:39:37;;;;;;;;;;;;;;;4.92;100.00;102079.50;5088231;28;20219;-75
2022/12/05 12:42:15;;;;;;;;;;;;;;;4.93;100.00;102078.63;5091934;28;19912;-75
2022/12/05 12:44:59;;;;;;;;;;;;;;;4.94;100.00;102071.72;5092971;28;19920;-75
2022/12/05 12:47:24;;;;;;;;;;;;;;;4.94;100.00;102080.34;5094210;28;19916;-75
2022/12/05 12:50:00;;;;;;;;;;;;;;;4.95;100.00;102078.66;5091493;28;19927;-75